Crane — ZR3519 — position and weather

sailwx.info

Track history (hours):
 
Tides and Currents Weather Stations Pressure Air Temp Water Temp Dewpoint Dewpoint Depression Visibility Wind Speed Wind Dir Waves Ship Positions

Crane

Last reported at 2015-Mar-30 12:14 UTC. Time now 2015-Mar-30 12:59 UTC.
Position S 29°52' E 031°03'.

MMSI: 601085000.

Date/timePositionNaut miles runAvg speedWind from/ knotsBaromVisibWave heightAir tempDewpointWater temp
2015-Mar-30 12:14S 29°52' E 031°03'2 2.3
2015-Mar-30 11:20S 29°52' E 031°01'0 0.0
2015-Mar-30 10:27S 29°52' E 031°01'0 0.0
2015-Mar-30 09:30S 29°52' E 031°01'0 0.0
2015-Mar-30 06:33S 29°52' E 031°01'0 0.0
2015-Mar-30 05:33S 29°52' E 031°01'  
2015-Mar-27 14:15S 29°53' E 031°00'0 0.0
2015-Mar-27 13:31S 29°53' E 031°00'0 0.0
2015-Mar-27 12:28S 29°53' E 031°00'0 0.0
2015-Mar-27 11:27S 29°53' E 031°00'0 0.0
2015-Mar-27 09:14S 29°53' E 031°00'0 0.0
2015-Mar-27 08:34S 29°53' E 031°00'2 2.2
2015-Mar-27 07:33S 29°53' E 031°03'3 3.4
2015-Mar-27 06:34S 29°53' E 031°07'3 2.8
2015-Mar-27 05:34S 29°52' E 031°04'2 2.3
2015-Mar-27 04:34S 29°52' E 031°01'0 0.0
2015-Mar-26 15:24S 29°52' E 031°01'0 0.1
2015-Mar-26 14:32S 29°52' E 031°01'0 0.0
2015-Mar-26 06:20S 29°52' E 031°01'0 0.0
2015-Mar-26 05:33S 29°52' E 031°01'0 0.1
2015-Mar-26 04:33S 29°52' E 031°01'0 0.0
2015-Mar-25 13:31S 29°52' E 031°01'4 4.5
2015-Mar-25 12:33S 29°52' E 031°06'3 3.4
2015-Mar-25 11:33S 29°52' E 031°02'1 0.9
2015-Mar-25 10:33S 29°52' E 031°01'0 0.0
2015-Mar-25 09:33S 29°52' E 031°01'0 0.0
2015-Mar-25 08:33S 29°52' E 031°01'0 0.0
2015-Mar-25 07:33S 29°52' E 031°01'0 0.0
2015-Mar-25 06:32S 29°52' E 031°01'0 0.0
2015-Mar-25 04:33S 29°52' E 031°01'0 0.0
2015-Mar-24 15:04S 29°52' E 031°01'1 2.8
2015-Mar-24 14:33S 29°53' E 031°02'3 3.5
2015-Mar-24 13:33S 29°53' E 031°06'5 4.7
2015-Mar-24 12:33S 29°52' E 031°01'0 0.2
2015-Mar-24 11:33S 29°52' E 031°01'0 0.0
2015-Mar-24 10:33S 29°52' E 031°01'0 0.0
2015-Mar-24 09:33S 29°52' E 031°01'0 0.0
2015-Mar-24 08:33S 29°52' E 031°01'0 0.0
2015-Mar-24 07:33S 29°52' E 031°01'1 0.1
2015-Mar-23 15:15S 29°53' E 030°60'0 0.0
2015-Mar-23 14:27S 29°53' E 030°60'0 0.0
2015-Mar-23 13:29S 29°53' E 030°60'0 0.0
2015-Mar-23 12:33S 29°53' E 030°60'0 0.0
2015-Mar-23 10:33S 29°53' E 030°60'5 1.1
2015-Mar-23 06:18S 29°52' E 031°05'1 1.9
2015-Mar-23 05:33S 29°53' E 031°06'5 4.7
2015-Mar-23 04:33S 29°52' E 031°01'0 0.0
2015-Mar-21 12:06S 29°52' E 031°01'0 0.0
2015-Mar-21 11:33S 29°52' E 031°01'0 0.0
2015-Mar-21 10:33S 29°52' E 031°01'0 0.0
2015-Mar-21 09:33S 29°52' E 031°01'0 0.0
2015-Mar-21 08:32S 29°52' E 031°01'1 1.5
2015-Mar-21 07:33S 29°53' E 031°02'4 3.7
2015-Mar-21 06:33S 29°53' E 031°07'3 3.3
2015-Mar-21 05:32S 29°53' E 031°03'2 0.2
2015-Mar-20 15:09S 29°53' E 031°00'1 2.0
2015-Mar-20 14:33S 29°52' E 031°01'0 0.0
2015-Mar-20 13:33S 29°52' E 031°01'0 0.0
2015-Mar-20 12:31S 29°52' E 031°01'  
Track history (hours):
 
Tides and Currents Weather Stations Pressure Air Temp Water Temp Dewpoint Dewpoint Depression Visibility Wind Speed Wind Dir Waves Ship Positions

Crane

Last reported at 2015-Mar-30 12:14 UTC. Time now 2015-Mar-30 12:59 UTC.
Position S 29°52' E 031°03'.

MMSI: 601085000.

Date/timePositionNaut miles runAvg speedWind from/ knotsBaromVisibWave heightAir tempDewpointWater temp
2015-Mar-30 12:14S 29°52' E 031°03'2 2.3
2015-Mar-30 11:20S 29°52' E 031°01'0 0.0
2015-Mar-30 10:27S 29°52' E 031°01'0 0.0
2015-Mar-30 09:30S 29°52' E 031°01'0 0.0
2015-Mar-30 06:33S 29°52' E 031°01'0 0.0
2015-Mar-30 05:33S 29°52' E 031°01'  
2015-Mar-27 14:15S 29°53' E 031°00'0 0.0
2015-Mar-27 13:31S 29°53' E 031°00'0 0.0
2015-Mar-27 12:28S 29°53' E 031°00'0 0.0
2015-Mar-27 11:27S 29°53' E 031°00'0 0.0
2015-Mar-27 09:14S 29°53' E 031°00'0 0.0
2015-Mar-27 08:34S 29°53' E 031°00'2 2.2
2015-Mar-27 07:33S 29°53' E 031°03'3 3.4
2015-Mar-27 06:34S 29°53' E 031°07'3 2.8
2015-Mar-27 05:34S 29°52' E 031°04'2 2.3
2015-Mar-27 04:34S 29°52' E 031°01'0 0.0
2015-Mar-26 15:24S 29°52' E 031°01'0 0.1
2015-Mar-26 14:32S 29°52' E 031°01'0 0.0
2015-Mar-26 06:20S 29°52' E 031°01'0 0.0
2015-Mar-26 05:33S 29°52' E 031°01'0 0.1
2015-Mar-26 04:33S 29°52' E 031°01'0 0.0
2015-Mar-25 13:31S 29°52' E 031°01'4 4.5
2015-Mar-25 12:33S 29°52' E 031°06'3 3.4
2015-Mar-25 11:33S 29°52' E 031°02'1 0.9
2015-Mar-25 10:33S 29°52' E 031°01'0 0.0
2015-Mar-25 09:33S 29°52' E 031°01'0 0.0
2015-Mar-25 08:33S 29°52' E 031°01'0 0.0
2015-Mar-25 07:33S 29°52' E 031°01'0 0.0
2015-Mar-25 06:32S 29°52' E 031°01'0 0.0
2015-Mar-25 04:33S 29°52' E 031°01'0 0.0
2015-Mar-24 15:04S 29°52' E 031°01'1 2.8
2015-Mar-24 14:33S 29°53' E 031°02'3 3.5
2015-Mar-24 13:33S 29°53' E 031°06'5 4.7
2015-Mar-24 12:33S 29°52' E 031°01'0 0.2
2015-Mar-24 11:33S 29°52' E 031°01'0 0.0
2015-Mar-24 10:33S 29°52' E 031°01'0 0.0
2015-Mar-24 09:33S 29°52' E 031°01'0 0.0
2015-Mar-24 08:33S 29°52' E 031°01'0 0.0
2015-Mar-24 07:33S 29°52' E 031°01'1 0.1
2015-Mar-23 15:15S 29°53' E 030°60'0 0.0
2015-Mar-23 14:27S 29°53' E 030°60'0 0.0
2015-Mar-23 13:29S 29°53' E 030°60'0 0.0
2015-Mar-23 12:33S 29°53' E 030°60'0 0.0
2015-Mar-23 10:33S 29°53' E 030°60'5 1.1
2015-Mar-23 06:18S 29°52' E 031°05'1 1.9
2015-Mar-23 05:33S 29°53' E 031°06'5 4.7
2015-Mar-23 04:33S 29°52' E 031°01'0 0.0
2015-Mar-21 12:06S 29°52' E 031°01'0 0.0
2015-Mar-21 11:33S 29°52' E 031°01'0 0.0
2015-Mar-21 10:33S 29°52' E 031°01'0 0.0
2015-Mar-21 09:33S 29°52' E 031°01'0 0.0
2015-Mar-21 08:32S 29°52' E 031°01'1 1.5
2015-Mar-21 07:33S 29°53' E 031°02'4 3.7
2015-Mar-21 06:33S 29°53' E 031°07'3 3.3
2015-Mar-21 05:32S 29°53' E 031°03'2 0.2
2015-Mar-20 15:09S 29°53' E 031°00'1 2.0
2015-Mar-20 14:33S 29°52' E 031°01'0 0.0
2015-Mar-20 13:33S 29°52' E 031°01'0 0.0
2015-Mar-20 12:31S 29°52' E 031°01'  

Dump ship's entire track history